KEAN/EAN METAR and TAF weather

Enter ICAO airport designator
Station Type Date Time Source
KEAN METAR 2019/06/16 07:15 UTC NOAA

KEAN 160715Z AUTO 12007KT 10SM CLR 15/11 A3000 RMK AO2 T01520114


Station Type Date Time Source
KEAN Decoded METAR 2019/06/16 07:15 UTC NOAA

Station name not available
Jun 16, 2019 - 03:15 AM EDT / 2019.06.16 0715 UTC
Wind: from the ESE (120 degrees) at 8 MPH (7 KT):0
Visibility: 10 mile(s):0
Sky conditions: clear
Temperature: 59.4 F (15.2 C)
Dew Point: 52.5 F (11.4 C)
Relative Humidity: 78%
Pressure (altimeter): 30 in. Hg (1015 hPa)
ob: KEAN 160715Z AUTO 12007KT 10SM CLR 15/11 A3000 RMK AO2 T01520114
cycle: 7

Station Type Date Time Source
KEAN TAF UTC NOAA

Error!

Example: see airport list